createdAt,value
2022-12-11T00:01:36.836Z,12.7
2022-12-11T00:04:36.842Z,12.3
2022-12-11T00:07:36.873Z,12.8
2022-12-11T00:10:37.900Z,11.5
2022-12-11T00:13:36.881Z,12.7
2022-12-11T00:16:36.887Z,12
2022-12-11T00:19:36.904Z,12.4
2022-12-11T00:22:36.908Z,12.2
2022-12-11T00:25:36.939Z,12.8
2022-12-11T00:28:36.927Z,13.4
2022-12-11T00:31:36.968Z,12.7
2022-12-11T00:34:36.947Z,11.9
2022-12-11T00:37:36.985Z,12.6
2022-12-11T00:40:36.964Z,12.4
2022-12-11T00:43:37.007Z,12.1
2022-12-11T00:46:36.987Z,11.7
2022-12-11T00:49:36.998Z,11.7
2022-12-11T00:52:37.007Z,12.2
2022-12-11T00:55:37.022Z,12.5
2022-12-11T00:58:37.029Z,13.1
2022-12-11T01:01:37.107Z,12.5
2022-12-11T01:04:37.043Z,12.4
2022-12-11T01:07:37.047Z,12
2022-12-11T01:10:37.093Z,11.8
2022-12-11T01:13:37.071Z,12.2
2022-12-11T01:16:37.095Z,11.2
2022-12-11T01:19:37.143Z,10.9
2022-12-11T01:22:37.100Z,10.1
2022-12-11T01:25:37.107Z,10.6
2022-12-11T01:28:37.122Z,10.8
2022-12-11T01:31:37.128Z,10.6
2022-12-11T01:34:37.141Z,10.4
2022-12-11T01:37:37.179Z,10.9
2022-12-11T01:40:37.161Z,10.7
2022-12-11T01:43:37.168Z,11
2022-12-11T01:46:37.186Z,10.9
2022-12-11T01:49:37.190Z,11.5
2022-12-11T01:52:37.200Z,11.6
2022-12-11T01:55:37.234Z,10.9
2022-12-11T01:58:37.221Z,10.9
2022-12-11T02:01:37.271Z,10.6
2022-12-11T02:04:37.232Z,10.1
2022-12-11T02:07:37.243Z,10.6
2022-12-11T02:10:37.254Z,9.8
2022-12-11T02:13:37.291Z,10.2
2022-12-11T02:16:37.306Z,10.3
2022-12-11T02:19:37.284Z,10.3
2022-12-11T02:22:37.293Z,11.5
2022-12-11T02:25:37.305Z,12
2022-12-11T02:28:37.311Z,11.8
2022-12-11T02:31:37.377Z,11.7
2022-12-11T02:34:37.328Z,12.3
2022-12-11T02:37:37.342Z,12
2022-12-11T02:40:37.356Z,12.1
2022-12-11T02:43:37.363Z,11.4
2022-12-11T02:46:37.367Z,11.6
2022-12-11T02:49:37.425Z,11.8
2022-12-11T02:52:37.386Z,11.1
2022-12-11T02:55:37.399Z,11.1
2022-12-11T02:58:37.406Z,11.1
2022-12-11T03:01:37.514Z,11.2
2022-12-11T03:04:37.423Z,11.6
2022-12-11T03:07:37.462Z,11.3
2022-12-11T03:10:37.438Z,11.4
2022-12-11T03:13:37.446Z,11.4
2022-12-11T03:16:37.492Z,11.9
2022-12-11T03:19:37.460Z,12.1
2022-12-11T03:22:37.469Z,11.7
2022-12-11T03:25:37.493Z,10.9
2022-12-11T03:28:37.479Z,11
2022-12-11T03:31:37.483Z,12
2022-12-11T03:34:37.489Z,11.6
2022-12-11T03:37:37.495Z,11.6
2022-12-11T03:40:37.493Z,10.7
2022-12-11T03:43:37.527Z,10.8
2022-12-11T03:46:37.507Z,10.2
2022-12-11T03:49:37.519Z,10.7
2022-12-11T03:52:41.010Z,10.5
2022-12-11T03:55:37.527Z,10.1
2022-12-11T03:58:37.529Z,10.8
2022-12-11T04:01:37.593Z,10.6
2022-12-11T04:04:37.581Z,11.2
2022-12-11T04:07:37.546Z,10.6
2022-12-11T04:10:37.560Z,11.4
2022-12-11T04:13:37.556Z,11.9
2022-12-11T04:16:37.560Z,11.5
2022-12-11T04:19:37.588Z,11.4
2022-12-11T04:22:37.627Z,11.4
2022-12-11T04:25:37.573Z,11.3
2022-12-11T04:28:37.571Z,11.8
2022-12-11T04:31:37.579Z,10.9
2022-12-11T04:34:37.580Z,11.2
2022-12-11T04:37:37.618Z,11.4
2022-12-11T04:40:37.593Z,11.9
2022-12-11T04:43:37.596Z,11.3
2022-12-11T04:46:37.702Z,11.8
2022-12-11T04:49:37.606Z,12.4
2022-12-11T04:52:37.875Z,12.4
2022-12-11T04:55:37.647Z,12.2
2022-12-11T04:58:37.625Z,12.5
2022-12-11T05:01:37.651Z,12
2022-12-11T05:04:37.631Z,12.4
2022-12-11T05:07:37.638Z,12.2
2022-12-11T05:10:37.643Z,12.3
2022-12-11T05:13:37.665Z,12.4
2022-12-11T05:16:37.653Z,12.6
2022-12-11T05:19:37.659Z,12.7
2022-12-11T05:22:37.659Z,11.8
2022-12-11T05:25:37.665Z,12.2
2022-12-11T05:28:37.670Z,12.2
2022-12-11T05:31:37.740Z,12.6
2022-12-11T05:34:37.680Z,12.6
2022-12-11T05:37:37.684Z,11.7
2022-12-11T05:40:37.693Z,12.1
2022-12-11T05:43:37.686Z,12.4
2022-12-11T05:46:37.747Z,12.1
2022-12-11T05:49:37.734Z,11.8
2022-12-11T05:52:37.706Z,12.2
2022-12-11T05:55:37.729Z,12.5
2022-12-11T05:58:37.733Z,12.7
2022-12-11T06:01:37.814Z,12.7
2022-12-11T06:04:37.786Z,12.5
2022-12-11T06:07:37.811Z,13.5
2022-12-11T06:10:37.781Z,12.5
2022-12-11T06:13:37.781Z,12.4
2022-12-11T06:16:37.819Z,13.4
2022-12-11T06:19:37.790Z,13.3
2022-12-11T06:22:37.789Z,13.8
2022-12-11T06:25:37.815Z,12.9
2022-12-11T06:28:37.797Z,13.2
2022-12-11T06:31:37.829Z,13.6
2022-12-11T06:34:37.788Z,13.3
2022-12-11T06:37:37.793Z,13.3
2022-12-11T06:40:37.788Z,14.2
2022-12-11T06:43:37.822Z,13.7
2022-12-11T06:46:37.792Z,14.3
2022-12-11T06:49:37.796Z,13.9
2022-12-11T06:52:37.797Z,14.2
2022-12-11T06:55:37.801Z,14.6
2022-12-11T06:58:37.800Z,14.2
2022-12-11T07:01:37.821Z,13.7
2022-12-11T07:04:37.804Z,13.4
2022-12-11T07:07:37.799Z,13.8
2022-12-11T07:10:37.800Z,13.4
2022-12-11T07:13:37.803Z,13.9
2022-12-11T07:16:37.857Z,13.2
2022-12-11T07:19:37.859Z,13.2
2022-12-11T07:22:41.692Z,13.4
2022-12-11T07:25:37.806Z,13.2
2022-12-11T07:28:37.807Z,13.4
2022-12-11T07:31:37.875Z,13.7
2022-12-11T07:34:37.815Z,14.2
2022-12-11T07:37:37.840Z,14.9
2022-12-11T07:40:37.823Z,14
2022-12-11T07:43:37.817Z,14.4
2022-12-11T07:46:37.815Z,14.8
2022-12-11T07:49:37.827Z,14.8
2022-12-11T07:52:37.823Z,14.7
2022-12-11T07:55:37.853Z,14.9
2022-12-11T07:58:37.831Z,14.4
2022-12-11T08:01:37.935Z,14.9
2022-12-11T08:04:37.836Z,15.4
2022-12-11T08:07:37.837Z,16.6
2022-12-11T08:10:37.841Z,16.8
2022-12-11T08:13:37.866Z,17.2
2022-12-11T08:16:37.868Z,17.5
2022-12-11T08:19:37.854Z,17.7
2022-12-11T08:22:37.851Z,16.9
2022-12-11T08:25:37.859Z,17.3
2022-12-11T08:28:37.859Z,15.5
2022-12-11T08:31:37.891Z,15.4
2022-12-11T08:34:37.867Z,15.6
2022-12-11T08:37:37.927Z,15.7
2022-12-11T08:40:37.876Z,15.4
2022-12-11T08:43:37.881Z,26.2
2022-12-11T08:46:37.926Z,16.2
2022-12-11T08:49:37.909Z,15.8
2022-12-11T08:52:37.888Z,13.7
2022-12-11T08:55:37.895Z,13
2022-12-11T08:58:37.896Z,12.6
2022-12-11T09:01:37.947Z,12.8
2022-12-11T09:04:37.902Z,12.4
2022-12-11T09:07:37.945Z,14.9
2022-12-11T09:10:37.917Z,14.1
2022-12-11T09:13:37.926Z,13.7
2022-12-11T09:16:37.963Z,13.3
2022-12-11T09:19:37.935Z,12.1
2022-12-11T09:22:37.940Z,13.2
2022-12-11T09:25:37.965Z,13.2
2022-12-11T09:28:41.352Z,12.6
2022-12-11T09:31:37.969Z,14.1
2022-12-11T09:34:37.960Z,13.6
2022-12-11T09:37:37.966Z,14
2022-12-11T09:40:37.980Z,12.9
2022-12-11T09:43:38.042Z,12.7
2022-12-11T09:46:38.034Z,12.2
2022-12-11T09:49:38.000Z,11.3
2022-12-11T09:52:38.007Z,11.4
2022-12-11T09:55:38.009Z,11.3
2022-12-11T09:58:38.014Z,11.9
2022-12-11T10:01:38.060Z,11.2
2022-12-11T10:04:38.033Z,11
2022-12-11T10:07:38.036Z,10.8
2022-12-11T10:10:38.053Z,10.4
2022-12-11T10:13:38.060Z,10.7
2022-12-11T10:16:38.060Z,10.4
2022-12-11T10:19:38.099Z,10.4
2022-12-11T10:22:38.072Z,10.5
2022-12-11T10:25:38.089Z,10.2
2022-12-11T10:28:38.098Z,9.4
2022-12-11T10:31:38.152Z,10.2
2022-12-11T10:34:38.109Z,10.6
2022-12-11T10:37:38.141Z,10.3
2022-12-11T10:40:38.126Z,10.4
2022-12-11T10:43:38.129Z,10.2
2022-12-11T10:46:38.144Z,10.3
2022-12-11T10:49:38.140Z,10.6
2022-12-11T10:52:38.145Z,10.6
2022-12-11T10:55:38.176Z,10.9
2022-12-11T10:58:38.149Z,11.3
2022-12-11T11:01:38.214Z,10.9
2022-12-11T11:04:38.157Z,10
2022-12-11T11:07:38.164Z,11.5
2022-12-11T11:10:38.172Z,11.2
2022-12-11T11:13:38.199Z,11.3
2022-12-11T11:16:38.192Z,12.2
2022-12-11T11:19:38.184Z,11.5
2022-12-11T11:22:38.186Z,11.7
2022-12-11T11:25:38.200Z,11.4
2022-12-11T11:28:38.204Z,11.3
2022-12-11T11:31:38.283Z,11.2
2022-12-11T11:34:38.202Z,11.1
2022-12-11T11:37:38.210Z,11.6
2022-12-11T11:40:38.221Z,11.2
2022-12-11T11:43:38.226Z,11
2022-12-11T11:46:38.299Z,12.4
2022-12-11T11:49:38.254Z,12.2
2022-12-11T11:52:38.235Z,11.8
2022-12-11T11:55:38.236Z,11.5
2022-12-11T11:58:38.244Z,11.2
2022-12-11T12:01:38.248Z,11.1
2022-12-11T12:04:38.244Z,11.5
2022-12-11T12:07:38.279Z,9.9
2022-12-11T12:10:38.252Z,9.8
2022-12-11T12:13:49.376Z,10.7
2022-12-11T12:16:54.070Z,11.8
2022-12-11T12:19:38.276Z,11.3
2022-12-11T12:22:38.270Z,11.5
2022-12-11T12:25:38.312Z,11.9
2022-12-11T12:28:38.279Z,11.8
2022-12-11T12:31:38.286Z,12
2022-12-11T12:34:38.285Z,11.8
2022-12-11T12:37:38.288Z,11.7
2022-12-11T12:40:38.290Z,11.1
2022-12-11T12:43:38.356Z,11.3
2022-12-11T12:46:38.293Z,11.9
2022-12-11T12:49:38.298Z,11.6
2022-12-11T12:52:38.302Z,12
2022-12-11T12:55:38.331Z,11.9
2022-12-11T12:58:38.298Z,12.3
2022-12-11T13:01:38.352Z,12.4
2022-12-11T13:04:56.405Z,12.8
2022-12-11T13:07:38.319Z,13.5
2022-12-11T13:10:38.319Z,12.9
2022-12-11T13:13:38.330Z,13
2022-12-11T13:16:38.362Z,12.8
2022-12-11T13:19:42.493Z,13
2022-12-11T13:22:38.347Z,12.4
2022-12-11T13:25:41.630Z,12.6
2022-12-11T13:28:38.356Z,12.2
2022-12-11T13:31:38.415Z,11.9
2022-12-11T13:34:38.365Z,12.5
2022-12-11T13:37:38.397Z,12.8
2022-12-11T13:40:38.384Z,12.9
2022-12-11T13:43:38.391Z,12.5
2022-12-11T13:46:38.393Z,12.3
2022-12-11T13:49:38.397Z,11.6
2022-12-11T13:52:38.403Z,11.1
2022-12-11T13:55:38.440Z,10.8
2022-12-11T13:58:38.423Z,11.2
2022-12-11T14:01:38.433Z,11.3
2022-12-11T14:04:38.434Z,11.6
2022-12-11T14:07:38.435Z,11.4
2022-12-11T14:10:38.448Z,12.2
2022-12-11T14:13:38.480Z,11.8
2022-12-11T14:16:38.515Z,11.1
2022-12-11T14:19:38.473Z,11.9
2022-12-11T14:22:38.481Z,11.8
2022-12-11T14:25:38.486Z,12.4
2022-12-11T14:28:38.483Z,11.8
2022-12-11T14:31:38.569Z,11.5
2022-12-11T14:34:38.504Z,11.5
2022-12-11T14:37:38.506Z,11.4
2022-12-11T14:40:38.512Z,11.8
2022-12-11T14:43:38.512Z,12.1
2022-12-11T14:46:38.519Z,11.4
2022-12-11T14:49:38.561Z,11.7
2022-12-11T14:52:38.531Z,12.7
2022-12-11T14:55:38.537Z,12.1
2022-12-11T14:58:38.535Z,12.4
2022-12-11T15:01:38.603Z,11.9
2022-12-11T15:04:38.544Z,11.8
2022-12-11T15:07:38.582Z,12.6
2022-12-11T15:10:38.556Z,15
2022-12-11T15:13:38.565Z,16.7
2022-12-11T15:16:38.642Z,18.6
2022-12-11T15:19:38.572Z,15.1
2022-12-11T15:22:38.572Z,15.3
2022-12-11T15:25:38.599Z,13.9
2022-12-11T15:28:38.583Z,14
2022-12-11T15:31:38.589Z,15.3
2022-12-11T15:34:38.589Z,15.4
2022-12-11T15:37:38.595Z,15.7
2022-12-11T15:40:38.600Z,15.6
2022-12-11T15:43:38.629Z,16
2022-12-11T15:46:38.660Z,15.5
2022-12-11T15:49:38.620Z,16
2022-12-11T15:52:38.629Z,16.4
2022-12-11T15:55:38.628Z,15.8
2022-12-11T15:58:38.633Z,15.7
2022-12-11T16:01:38.709Z,16.1
2022-12-11T16:04:38.637Z,15.6
2022-12-11T16:07:38.643Z,16.6
2022-12-11T16:10:38.647Z,16.7
2022-12-11T16:13:38.651Z,17.6
2022-12-11T16:16:38.648Z,17.7
2022-12-11T16:19:38.684Z,16.5
2022-12-11T16:22:38.667Z,17.3
2022-12-11T16:25:38.661Z,17
2022-12-11T16:28:38.663Z,17.8
2022-12-11T16:31:38.680Z,17.5
2022-12-11T16:34:38.671Z,17.1
2022-12-11T16:37:38.698Z,16.7
2022-12-11T16:40:38.683Z,16.7
2022-12-11T16:43:38.683Z,16.7
2022-12-11T16:46:38.719Z,16.8
2022-12-11T16:49:38.702Z,16.9
2022-12-11T16:52:38.710Z,17.3
2022-12-11T16:55:38.746Z,16.4
2022-12-11T16:58:38.717Z,16.8
2022-12-11T17:01:38.736Z,16.9
2022-12-11T17:04:38.716Z,18.1
2022-12-11T17:07:38.723Z,15.9
2022-12-11T17:10:38.727Z,16.6
2022-12-11T17:13:38.759Z,17.3
2022-12-11T17:16:38.746Z,16.9
2022-12-11T17:19:38.744Z,16.9
2022-12-11T17:22:38.754Z,16.5
2022-12-11T17:25:38.756Z,16.3
2022-12-11T17:28:38.768Z,17.4
2022-12-11T17:31:38.772Z,18.3
2022-12-11T17:34:38.930Z,17.5
2022-12-11T17:37:38.776Z,18.2
2022-12-11T17:40:38.782Z,16.5
2022-12-11T17:43:38.788Z,17.1
2022-12-11T17:46:38.846Z,18.3
2022-12-11T17:49:38.793Z,19.6
2022-12-11T17:52:43.955Z,18.1
2022-12-11T17:55:38.839Z,19
2022-12-11T17:58:38.818Z,19.1
2022-12-11T18:01:38.870Z,19.3
2022-12-11T18:04:38.820Z,18.7
2022-12-11T18:07:38.819Z,18.2
2022-12-11T18:10:38.895Z,18.4
2022-12-11T18:13:38.830Z,18.9
2022-12-11T18:16:38.834Z,19.2
2022-12-11T18:19:42.856Z,19.7
2022-12-11T18:22:38.846Z,20.3
2022-12-11T18:25:38.850Z,20
2022-12-11T18:28:38.857Z,20.5
2022-12-11T18:31:42.312Z,20.9
2022-12-11T18:34:38.883Z,20.4
2022-12-11T18:37:38.893Z,22.3
2022-12-11T18:40:38.890Z,22.6
2022-12-11T18:43:38.893Z,21
2022-12-11T18:46:38.933Z,22.3
2022-12-11T18:49:38.918Z,24.6
2022-12-11T18:52:38.896Z,22.4
2022-12-11T18:55:38.904Z,21
2022-12-11T18:58:38.907Z,21
2022-12-11T19:01:38.964Z,22.9
2022-12-11T19:04:38.906Z,20
2022-12-11T19:07:38.942Z,18.8
2022-12-11T19:10:38.915Z,18.8
2022-12-11T19:13:38.921Z,19.7
2022-12-11T19:16:38.988Z,18.9
2022-12-11T19:19:38.931Z,18.9
2022-12-11T19:22:38.935Z,19.9
2022-12-11T19:25:38.967Z,19.2
2022-12-11T19:28:38.952Z,20
2022-12-11T19:31:39.009Z,22
2022-12-11T19:34:38.954Z,22.2
2022-12-11T19:37:38.956Z,22
2022-12-11T19:40:38.965Z,23
2022-12-11T19:43:38.993Z,23
2022-12-11T19:46:39.035Z,23.5
2022-12-11T19:49:38.978Z,28.7
2022-12-11T19:52:42.930Z,26.4
2022-12-11T19:55:38.985Z,27.9
2022-12-11T19:58:38.985Z,25.9
2022-12-11T20:01:39.074Z,24.4
2022-12-11T20:04:38.998Z,25.3
2022-12-11T20:07:39.011Z,27.7
2022-12-11T20:10:39.006Z,28
2022-12-11T20:13:39.021Z,27.2
2022-12-11T20:17:09.035Z,29.8
2022-12-11T20:19:39.160Z,24.9
2022-12-11T20:22:39.027Z,23.8
2022-12-11T20:25:40.101Z,22.9
2022-12-11T20:28:39.040Z,24.3
2022-12-11T20:31:39.082Z,24.8
2022-12-11T20:34:39.077Z,26.5
2022-12-11T20:37:39.086Z,30.5
2022-12-11T20:40:39.064Z,32.3
2022-12-11T20:43:39.063Z,29.2
2022-12-11T20:46:39.072Z,27.9
2022-12-11T20:49:39.088Z,26.8
2022-12-11T20:52:39.079Z,27.4
2022-12-11T20:55:39.114Z,29.1
2022-12-11T20:58:39.090Z,29.2
2022-12-11T21:01:39.099Z,32.2
2022-12-11T21:04:39.116Z,32.3
2022-12-11T21:07:39.103Z,28.6
2022-12-11T21:10:39.108Z,26.7
2022-12-11T21:13:39.141Z,26.6
2022-12-11T21:16:39.181Z,26.7
2022-12-11T21:19:39.141Z,26.7
2022-12-11T21:22:39.133Z,26.3
2022-12-11T21:25:39.138Z,26.4
2022-12-11T21:28:39.143Z,26.1
2022-12-11T21:31:39.193Z,26.7
2022-12-11T21:34:39.158Z,25
2022-12-11T21:37:39.154Z,25.3
2022-12-11T21:40:39.163Z,24.7
2022-12-11T21:43:48.301Z,23.8
2022-12-11T21:46:39.189Z,24.5
2022-12-11T21:49:39.212Z,24.9
2022-12-11T21:52:39.183Z,23.4
2022-12-11T21:55:39.180Z,23.3
2022-12-11T21:58:39.192Z,22.4
2022-12-11T22:01:39.190Z,21.4
2022-12-11T22:04:39.207Z,21.8
2022-12-11T22:07:39.253Z,21.2
2022-12-11T22:10:39.198Z,20.7
2022-12-11T22:13:39.206Z,21
2022-12-11T22:16:39.286Z,20.1
2022-12-11T22:19:39.227Z,20.5
2022-12-11T22:22:39.222Z,20.4
2022-12-11T22:25:39.231Z,19.5
2022-12-11T22:28:39.251Z,20.1
2022-12-11T22:31:39.233Z,19.5
2022-12-11T22:34:39.250Z,19.7
2022-12-11T22:37:39.252Z,19.8
2022-12-11T22:40:39.243Z,20.7
2022-12-11T22:43:39.257Z,20.2
2022-12-11T22:46:49.602Z,19.6
2022-12-11T22:49:39.302Z,19.7
2022-12-11T22:52:39.269Z,19.6
2022-12-11T22:55:39.266Z,18.7
2022-12-11T22:58:39.275Z,19.5
2022-12-11T23:01:39.279Z,19.9
2022-12-11T23:04:39.292Z,19.2
2022-12-11T23:07:39.420Z,19.7
2022-12-11T23:10:39.297Z,19.4
2022-12-11T23:13:39.296Z,19.2
2022-12-11T23:16:39.310Z,18.7
2022-12-11T23:19:39.327Z,19.6
2022-12-11T23:22:39.310Z,18.5
2022-12-11T23:25:39.344Z,18.7
2022-12-11T23:28:39.322Z,18.6
2022-12-11T23:31:39.325Z,19.4
2022-12-11T23:34:39.337Z,18.4
2022-12-11T23:37:39.335Z,18.9
2022-12-11T23:40:39.339Z,18.9
2022-12-11T23:43:39.337Z,19
2022-12-11T23:46:39.507Z,18.8
2022-12-11T23:49:39.360Z,18.8
2022-12-11T23:52:39.359Z,19.1
2022-12-11T23:55:39.367Z,18.6
2022-12-11T23:58:39.369Z,18.5
